createdAt,value
2018-06-27T00:00:27.456Z,20.20
2018-06-27T00:00:59.179Z,20.20
2018-06-27T00:01:30.921Z,20.20
2018-06-27T00:02:02.602Z,20.20
2018-06-27T00:02:34.342Z,20.20
2018-06-27T00:03:06.060Z,20.20
2018-06-27T00:03:37.768Z,20.20
2018-06-27T00:04:09.499Z,20.20
2018-06-27T00:04:41.209Z,20.20
2018-06-27T00:05:12.926Z,20.20
2018-06-27T00:05:44.649Z,20.20
2018-06-27T00:06:16.361Z,20.20
2018-06-27T00:06:48.066Z,20.20
2018-06-27T00:07:19.778Z,20.20
2018-06-27T00:07:51.495Z,20.20
2018-06-27T00:08:23.240Z,20.20
2018-06-27T00:08:54.935Z,20.20
2018-06-27T00:09:26.660Z,20.20
2018-06-27T00:09:58.433Z,20.20
2018-06-27T00:10:30.124Z,20.20
2018-06-27T00:11:01.885Z,20.20
2018-06-27T00:11:33.621Z,20.20
2018-06-27T00:12:05.328Z,20.20
2018-06-27T00:12:37.034Z,20.20
2018-06-27T00:13:08.848Z,20.20
2018-06-27T00:13:40.554Z,20.20
2018-06-27T00:14:12.267Z,20.20
2018-06-27T00:14:44.024Z,20.20
2018-06-27T00:15:15.726Z,20.20
2018-06-27T00:15:47.483Z,20.20
2018-06-27T00:16:19.214Z,20.20
2018-06-27T00:16:50.936Z,20.20
2018-06-27T00:17:22.640Z,20.20
2018-06-27T00:17:54.356Z,20.20
2018-06-27T00:18:26.086Z,20.20
2018-06-27T00:18:57.832Z,20.20
2018-06-27T00:19:29.676Z,20.20
2018-06-27T00:20:01.289Z,20.20
2018-06-27T00:20:33.018Z,20.20
2018-06-27T00:21:04.744Z,20.20
2018-06-27T00:21:36.459Z,20.20
2018-06-27T00:22:08.248Z,20.20
2018-06-27T00:22:39.970Z,20.20
2018-06-27T00:23:11.679Z,20.20
2018-06-27T00:23:43.408Z,20.20
2018-06-27T00:24:15.113Z,20.20
2018-06-27T00:24:46.828Z,20.20
2018-06-27T00:25:18.549Z,20.20
2018-06-27T00:25:50.267Z,20.20
2018-06-27T00:26:21.974Z,20.20
2018-06-27T00:26:53.687Z,20.20
2018-06-27T00:27:25.415Z,20.20
2018-06-27T00:27:57.186Z,20.20
2018-06-27T00:28:28.903Z,20.20
2018-06-27T00:29:00.637Z,20.10
2018-06-27T00:29:32.382Z,20.10
2018-06-27T00:30:04.091Z,20.10
2018-06-27T00:30:35.797Z,20.40
2018-06-27T00:31:07.526Z,20.10
2018-06-27T00:31:39.249Z,20.10
2018-06-27T00:32:10.966Z,20.10
2018-06-27T00:32:42.691Z,20.10
2018-06-27T00:33:14.412Z,20.10
2018-06-27T00:33:46.146Z,20.10
2018-06-27T00:34:17.845Z,20.10
2018-06-27T00:34:49.576Z,20.10
2018-06-27T00:35:21.279Z,20.10
2018-06-27T00:35:53.022Z,20.10
2018-06-27T00:36:24.776Z,20.10
2018-06-27T00:36:56.491Z,20.10
2018-06-27T00:37:28.196Z,20.10
2018-06-27T00:38:00.154Z,20.10
2018-06-27T00:38:31.866Z,20.10
2018-06-27T00:39:03.597Z,20.10
2018-06-27T00:39:35.318Z,20.10
2018-06-27T00:40:07.032Z,20.10
2018-06-27T00:40:38.766Z,20.10
2018-06-27T00:41:10.485Z,20.10
2018-06-27T00:41:42.209Z,20.10
2018-06-27T00:42:13.948Z,20.10
2018-06-27T00:42:45.677Z,20.10
2018-06-27T00:43:17.389Z,20.10
2018-06-27T00:43:49.117Z,20.10
2018-06-27T00:44:20.824Z,20.10
2018-06-27T00:44:52.562Z,20.10
2018-06-27T00:45:24.347Z,20.10
2018-06-27T00:45:56.046Z,20.10
2018-06-27T00:46:27.786Z,20.10
2018-06-27T00:46:59.498Z,20.10
2018-06-27T00:47:31.209Z,20.10
2018-06-27T00:48:02.951Z,20.10
2018-06-27T00:48:34.709Z,20.10
2018-06-27T00:49:06.436Z,20.10
2018-06-27T00:49:38.170Z,20.10
2018-06-27T00:50:09.894Z,20.10
2018-06-27T00:50:41.606Z,20.10
2018-06-27T00:51:13.357Z,20.10
2018-06-27T00:51:45.090Z,20.10
2018-06-27T00:52:16.790Z,20.10
2018-06-27T00:52:48.559Z,20.10
2018-06-27T00:53:20.314Z,20.10
2018-06-27T00:53:52.026Z,20.10
2018-06-27T00:54:23.762Z,20.10
2018-06-27T00:54:55.534Z,20.10
2018-06-27T00:55:27.218Z,20.10
2018-06-27T00:55:59.002Z,20.10
2018-06-27T00:56:30.709Z,20.10
2018-06-27T00:57:02.432Z,20.10
2018-06-27T00:57:34.190Z,20.10
2018-06-27T00:58:05.895Z,20.10
2018-06-27T00:58:37.623Z,20.10
2018-06-27T00:59:09.333Z,20.10
2018-06-27T00:59:41.038Z,20.10
2018-06-27T01:00:12.757Z,20.10
2018-06-27T01:00:44.482Z,20.10
2018-06-27T01:01:16.191Z,20.10
2018-06-27T01:01:47.953Z,20.10
2018-06-27T01:02:19.956Z,20.10
2018-06-27T01:02:51.679Z,20.10
2018-06-27T01:03:23.402Z,20.10
2018-06-27T01:03:55.114Z,20.10
2018-06-27T01:04:26.851Z,20.10
2018-06-27T01:04:58.554Z,20.10
2018-06-27T01:05:30.267Z,20.10
2018-06-27T01:06:02.004Z,20.10
2018-06-27T01:06:33.710Z,20.10
2018-06-27T01:07:05.425Z,20.10
2018-06-27T01:07:37.151Z,20.10
2018-06-27T01:08:08.861Z,20.10
2018-06-27T01:08:40.597Z,20.10
2018-06-27T01:09:12.299Z,20.10
2018-06-27T01:09:44.025Z,20.10
2018-06-27T01:10:15.733Z,20.10
2018-06-27T01:10:47.451Z,20.10
2018-06-27T01:11:19.171Z,20.10
2018-06-27T01:11:50.907Z,20.00
2018-06-27T01:12:22.642Z,20.00
2018-06-27T01:12:54.372Z,20.00
2018-06-27T01:13:26.105Z,20.00
2018-06-27T01:13:57.845Z,20.00
2018-06-27T01:14:29.567Z,20.00
2018-06-27T01:15:01.278Z,20.00
2018-06-27T01:15:33.007Z,20.00
2018-06-27T01:16:04.742Z,20.00
2018-06-27T01:16:36.434Z,20.00
2018-06-27T01:17:08.154Z,20.00
2018-06-27T01:17:39.855Z,20.00
2018-06-27T01:18:11.562Z,20.00
2018-06-27T01:18:43.307Z,20.00
2018-06-27T01:19:15.046Z,20.00
2018-06-27T01:19:46.760Z,20.00
2018-06-27T01:20:18.516Z,20.10
2018-06-27T01:20:50.226Z,20.10
2018-06-27T01:21:21.944Z,20.10
2018-06-27T01:21:53.658Z,20.10
2018-06-27T01:22:25.371Z,20.10
2018-06-27T01:22:57.097Z,20.10
2018-06-27T01:23:28.791Z,20.10
2018-06-27T01:24:00.530Z,20.10
2018-06-27T01:24:32.289Z,20.10
2018-06-27T01:25:03.988Z,20.10
2018-06-27T01:25:35.701Z,20.10
2018-06-27T01:26:07.441Z,20.10
2018-06-27T01:26:39.148Z,20.00
2018-06-27T01:27:10.868Z,20.10
2018-06-27T01:27:42.582Z,20.10
2018-06-27T01:28:14.298Z,20.10
2018-06-27T01:28:46.028Z,20.10
2018-06-27T01:29:17.769Z,20.10
2018-06-27T01:29:49.478Z,20.10
2018-06-27T01:30:21.185Z,20.10
2018-06-27T01:30:52.904Z,20.10
2018-06-27T01:31:24.621Z,20.10
2018-06-27T01:31:56.327Z,20.10
2018-06-27T01:32:28.045Z,20.00
2018-06-27T01:32:59.809Z,20.00
2018-06-27T01:33:31.531Z,20.00
2018-06-27T01:34:03.244Z,20.00
2018-06-27T01:34:35.020Z,20.00
2018-06-27T01:35:06.706Z,20.00
2018-06-27T01:35:38.453Z,19.90
2018-06-27T01:36:10.215Z,19.90
2018-06-27T01:36:41.898Z,19.90
2018-06-27T01:37:13.608Z,19.90
2018-06-27T01:37:45.325Z,20.00
2018-06-27T01:38:17.049Z,20.00
2018-06-27T01:38:48.789Z,20.00
2018-06-27T01:39:20.498Z,20.00
2018-06-27T01:39:52.225Z,20.00
2018-06-27T01:40:23.979Z,20.00
2018-06-27T01:40:55.697Z,20.00
2018-06-27T01:41:27.414Z,20.00
2018-06-27T01:41:59.158Z,20.00
2018-06-27T01:42:30.880Z,20.00
2018-06-27T01:43:02.614Z,20.00
2018-06-27T01:43:34.334Z,19.90
2018-06-27T01:44:06.059Z,20.00
2018-06-27T01:44:37.768Z,20.00
2018-06-27T01:45:09.492Z,20.00
2018-06-27T01:45:41.267Z,20.00
2018-06-27T01:46:12.978Z,20.00
2018-06-27T01:46:44.694Z,20.00
2018-06-27T01:47:16.409Z,20.00
2018-06-27T01:47:48.139Z,20.00
2018-06-27T01:48:19.857Z,20.00
2018-06-27T01:48:51.574Z,20.00
2018-06-27T01:49:23.316Z,20.00
2018-06-27T01:49:55.040Z,20.00
2018-06-27T01:50:26.772Z,20.00
2018-06-27T01:50:58.504Z,20.00
2018-06-27T01:51:30.215Z,20.00
2018-06-27T01:52:01.932Z,20.00
2018-06-27T01:52:33.693Z,20.00
2018-06-27T01:53:05.445Z,20.00
2018-06-27T01:53:37.188Z,20.00
2018-06-27T01:54:08.956Z,19.90
2018-06-27T01:54:40.645Z,19.90
2018-06-27T01:55:12.391Z,19.90
2018-06-27T01:55:44.159Z,19.90
2018-06-27T01:56:15.871Z,19.90
2018-06-27T01:56:47.603Z,19.90
2018-06-27T01:57:19.365Z,19.90
2018-06-27T01:57:51.142Z,19.90
2018-06-27T01:58:22.849Z,20.00
2018-06-27T01:58:54.598Z,20.00
2018-06-27T01:59:26.346Z,20.00
2018-06-27T01:59:58.057Z,20.00
2018-06-27T02:00:29.776Z,20.00
2018-06-27T02:01:01.485Z,20.00
2018-06-27T02:01:33.209Z,20.00
2018-06-27T02:02:05.018Z,19.90
2018-06-27T02:02:36.700Z,19.90
2018-06-27T02:03:08.416Z,19.90
2018-06-27T02:03:40.178Z,19.90
2018-06-27T02:04:11.877Z,19.90
2018-06-27T02:04:43.610Z,19.90
2018-06-27T02:05:15.380Z,19.90
2018-06-27T02:05:47.091Z,19.90
2018-06-27T02:06:18.806Z,19.90
2018-06-27T02:06:50.536Z,19.90
2018-06-27T02:07:22.255Z,19.90
2018-06-27T02:07:53.954Z,19.90
2018-06-27T02:08:25.697Z,19.90
2018-06-27T02:08:57.405Z,19.90
2018-06-27T02:09:29.148Z,19.90
2018-06-27T02:10:00.871Z,19.90
2018-06-27T02:10:32.580Z,19.90
2018-06-27T02:11:04.301Z,19.90
2018-06-27T02:11:36.023Z,19.90
2018-06-27T02:12:07.742Z,19.90
2018-06-27T02:12:39.455Z,19.90
2018-06-27T02:13:11.178Z,19.90
2018-06-27T02:13:42.901Z,19.90
2018-06-27T02:14:14.603Z,19.90
2018-06-27T02:14:46.340Z,19.90
2018-06-27T02:15:18.068Z,19.90
2018-06-27T02:15:49.786Z,19.90
2018-06-27T02:16:21.492Z,19.90
2018-06-27T02:16:53.206Z,19.90
2018-06-27T02:17:24.926Z,19.90
2018-06-27T02:17:56.640Z,19.90
2018-06-27T02:18:28.370Z,19.90
2018-06-27T02:19:00.087Z,19.90
2018-06-27T02:19:31.799Z,19.90
2018-06-27T02:20:03.512Z,19.90
2018-06-27T02:20:35.222Z,19.80
2018-06-27T02:21:06.951Z,19.90
2018-06-27T02:21:38.675Z,19.80
2018-06-27T02:22:10.418Z,19.80
2018-06-27T02:22:42.119Z,19.80
2018-06-27T02:23:13.846Z,19.80
2018-06-27T02:23:45.595Z,19.80
2018-06-27T02:24:17.307Z,19.80
2018-06-27T02:24:49.070Z,19.80
2018-06-27T02:25:20.842Z,19.80
2018-06-27T02:25:52.529Z,19.80
2018-06-27T02:26:24.251Z,19.90
2018-06-27T02:26:55.976Z,19.90
2018-06-27T02:27:27.708Z,19.90
2018-06-27T02:27:59.403Z,19.80
2018-06-27T02:28:31.129Z,19.90
2018-06-27T02:29:02.848Z,19.90
2018-06-27T02:29:34.591Z,19.80
2018-06-27T02:30:06.317Z,19.80
2018-06-27T02:30:38.027Z,19.80
2018-06-27T02:31:09.741Z,19.80
2018-06-27T02:31:41.464Z,19.80
2018-06-27T02:32:13.194Z,19.80
2018-06-27T02:32:44.928Z,19.80
2018-06-27T02:33:16.635Z,19.80
2018-06-27T02:33:48.363Z,19.80
2018-06-27T02:34:20.078Z,19.80
2018-06-27T02:34:51.838Z,19.90
2018-06-27T02:35:23.567Z,19.90
2018-06-27T02:35:55.280Z,19.90
2018-06-27T02:36:27.015Z,19.90
2018-06-27T02:36:58.755Z,19.90
2018-06-27T02:37:30.460Z,19.80
2018-06-27T02:38:02.193Z,19.90
2018-06-27T02:38:33.960Z,19.90
2018-06-27T02:39:05.654Z,19.90
2018-06-27T02:39:37.379Z,19.90
2018-06-27T02:40:09.105Z,19.90
2018-06-27T02:40:40.854Z,19.90
2018-06-27T02:41:12.579Z,19.90
2018-06-27T02:41:44.312Z,19.90
2018-06-27T02:42:16.023Z,19.90
2018-06-27T02:42:47.765Z,19.90
2018-06-27T02:43:19.478Z,19.90
2018-06-27T02:43:51.212Z,19.90
2018-06-27T02:44:22.938Z,19.90
2018-06-27T02:44:54.743Z,19.90
2018-06-27T02:45:58.488Z,19.90
2018-06-27T02:46:30.199Z,19.90
2018-06-27T02:47:01.918Z,19.90
2018-06-27T02:47:33.675Z,19.90
2018-06-27T02:48:05.411Z,19.90
2018-06-27T02:48:37.122Z,19.90
2018-06-27T02:49:08.872Z,19.90
2018-06-27T02:49:40.583Z,19.90
2018-06-27T02:50:12.287Z,19.90
2018-06-27T02:50:44.025Z,19.80
2018-06-27T02:51:15.748Z,19.90
2018-06-27T02:51:47.466Z,19.90
2018-06-27T02:52:19.923Z,19.80
2018-06-27T02:52:51.645Z,19.90
2018-06-27T02:53:23.382Z,19.90
2018-06-27T02:53:55.135Z,19.80
2018-06-27T02:54:26.834Z,19.80
2018-06-27T02:54:58.611Z,19.80
2018-06-27T02:55:30.409Z,19.80
2018-06-27T02:56:02.117Z,19.80
2018-06-27T02:56:33.883Z,19.80
2018-06-27T02:57:05.612Z,19.80
2018-06-27T02:57:37.330Z,19.80
2018-06-27T02:58:09.037Z,19.80
2018-06-27T02:58:40.796Z,19.80
2018-06-27T02:59:12.502Z,19.80
2018-06-27T02:59:44.242Z,19.80
2018-06-27T03:00:15.966Z,19.90
2018-06-27T03:00:47.683Z,19.90
2018-06-27T03:01:19.426Z,19.90
2018-06-27T03:01:51.163Z,19.90
2018-06-27T03:02:22.921Z,19.90
2018-06-27T03:02:54.660Z,19.90
2018-06-27T03:03:26.409Z,19.90
2018-06-27T03:03:58.115Z,19.90
2018-06-27T03:04:29.826Z,19.90
2018-06-27T03:05:01.565Z,19.90
2018-06-27T03:05:33.290Z,19.80
2018-06-27T03:06:05.077Z,19.90
2018-06-27T03:06:36.777Z,19.90
2018-06-27T03:07:08.496Z,19.90
2018-06-27T03:07:40.243Z,19.90
2018-06-27T03:08:11.976Z,19.90
2018-06-27T03:08:43.698Z,19.90
2018-06-27T03:09:15.467Z,19.90
2018-06-27T03:09:47.174Z,19.90
2018-06-27T03:10:18.903Z,19.90
2018-06-27T03:10:50.647Z,19.90
2018-06-27T03:11:22.404Z,19.90
2018-06-27T03:11:54.127Z,19.90
2018-06-27T03:12:25.855Z,19.90
2018-06-27T03:12:57.579Z,19.90
2018-06-27T03:13:29.304Z,19.90
2018-06-27T03:14:01.024Z,19.90
2018-06-27T03:14:32.767Z,19.90
2018-06-27T03:15:04.492Z,19.90
2018-06-27T03:15:36.213Z,19.90
2018-06-27T03:16:07.937Z,19.80
2018-06-27T03:16:39.641Z,19.90
2018-06-27T03:17:11.363Z,19.90
2018-06-27T03:17:43.083Z,19.90
2018-06-27T03:18:14.801Z,19.80
2018-06-27T03:18:46.513Z,19.80
2018-06-27T03:19:18.247Z,19.80
2018-06-27T03:19:49.959Z,19.80
2018-06-27T03:20:21.719Z,19.80
2018-06-27T03:20:53.388Z,19.80
2018-06-27T03:21:25.103Z,19.80
2018-06-27T03:21:56.819Z,19.90
2018-06-27T03:22:28.540Z,19.80
2018-06-27T03:23:00.246Z,19.80
2018-06-27T03:23:31.979Z,19.80
2018-06-27T03:24:03.710Z,19.80
2018-06-27T03:24:35.444Z,19.80
2018-06-27T03:25:07.167Z,19.80
2018-06-27T03:25:38.928Z,19.80
2018-06-27T03:26:10.653Z,19.80
2018-06-27T03:26:42.367Z,19.80
2018-06-27T03:27:14.180Z,19.80
2018-06-27T03:27:45.955Z,19.90
2018-06-27T03:28:17.654Z,19.80
2018-06-27T03:28:49.384Z,19.80
2018-06-27T03:29:21.161Z,19.80
2018-06-27T03:29:52.868Z,19.80
2018-06-27T03:30:24.575Z,19.80
2018-06-27T03:30:56.306Z,19.80
2018-06-27T03:31:28.013Z,19.80
2018-06-27T03:31:59.738Z,19.80
2018-06-27T03:32:31.451Z,19.80
2018-06-27T03:33:03.175Z,19.80
2018-06-27T03:33:34.913Z,19.80
2018-06-27T03:34:06.642Z,19.80
2018-06-27T03:34:38.347Z,19.80
2018-06-27T03:35:10.103Z,19.80
2018-06-27T03:35:41.836Z,19.80
2018-06-27T03:36:13.557Z,19.80
2018-06-27T03:36:45.265Z,19.80
2018-06-27T03:37:16.998Z,19.70
2018-06-27T03:37:48.733Z,19.80
2018-06-27T03:38:20.532Z,19.70
2018-06-27T03:38:52.254Z,19.70
2018-06-27T03:39:23.974Z,19.80
2018-06-27T03:39:55.703Z,19.80
2018-06-27T03:40:27.433Z,19.80
2018-06-27T03:40:59.158Z,19.80
2018-06-27T03:41:30.926Z,19.80
2018-06-27T03:42:02.644Z,19.80
2018-06-27T03:42:34.392Z,19.80
2018-06-27T03:43:06.119Z,19.80
2018-06-27T03:43:37.844Z,19.80
2018-06-27T03:44:09.554Z,19.80
2018-06-27T03:44:41.263Z,19.80
2018-06-27T03:45:12.978Z,19.80
2018-06-27T03:45:44.732Z,19.80
2018-06-27T03:46:16.455Z,19.80
2018-06-27T03:46:48.198Z,19.80
2018-06-27T03:47:19.967Z,19.70
2018-06-27T03:47:51.689Z,19.80
2018-06-27T03:48:23.416Z,19.80
2018-06-27T03:48:55.155Z,19.80
2018-06-27T03:49:26.865Z,19.80
2018-06-27T03:49:58.584Z,19.80
2018-06-27T03:50:30.310Z,19.80
2018-06-27T03:51:02.042Z,19.80
2018-06-27T03:51:33.767Z,19.80
2018-06-27T03:52:05.533Z,19.80
2018-06-27T03:52:37.267Z,19.80
2018-06-27T03:53:09.031Z,19.80
2018-06-27T03:53:40.786Z,19.80
2018-06-27T03:54:12.510Z,19.90
2018-06-27T03:54:44.238Z,19.80
2018-06-27T03:55:15.994Z,19.90
2018-06-27T03:55:47.740Z,19.90
2018-06-27T03:56:19.465Z,19.90
2018-06-27T03:56:51.177Z,19.90
2018-06-27T03:57:23.832Z,19.90
2018-06-27T03:57:55.546Z,19.90
2018-06-27T03:58:27.587Z,19.90
2018-06-27T03:58:59.382Z,19.80
2018-06-27T03:59:31.095Z,19.90
2018-06-27T04:00:02.945Z,19.90
2018-06-27T04:00:34.660Z,19.90
2018-06-27T04:01:06.394Z,19.90
2018-06-27T04:01:38.123Z,19.90
2018-06-27T04:02:09.935Z,20.00
2018-06-27T04:02:41.704Z,20.00
2018-06-27T04:03:13.447Z,20.00
2018-06-27T04:03:45.184Z,20.00
2018-06-27T04:04:16.883Z,20.00
2018-06-27T04:04:48.606Z,19.90
2018-06-27T04:05:20.341Z,19.90
2018-06-27T04:05:52.988Z,20.00
2018-06-27T04:06:24.710Z,20.00
2018-06-27T04:06:56.429Z,19.90
2018-06-27T04:07:28.144Z,19.90
2018-06-27T04:07:59.870Z,19.90
2018-06-27T04:08:31.591Z,19.90
2018-06-27T04:09:03.352Z,19.90
2018-06-27T04:09:35.045Z,19.90
2018-06-27T04:10:06.774Z,19.90
2018-06-27T04:10:38.486Z,20.00
2018-06-27T04:11:11.045Z,20.00
2018-06-27T04:11:43.002Z,20.00
2018-06-27T04:12:14.722Z,20.00
2018-06-27T04:12:46.517Z,20.00
2018-06-27T04:13:18.185Z,20.00
2018-06-27T04:13:50.366Z,20.00
2018-06-27T04:14:22.088Z,20.00
2018-06-27T04:14:53.800Z,20.00
2018-06-27T04:15:25.559Z,20.00
2018-06-27T04:15:57.269Z,20.00
2018-06-27T04:16:29.789Z,20.00
2018-06-27T04:17:01.538Z,20.00
2018-06-27T04:17:33.250Z,20.00
2018-06-27T04:18:04.975Z,20.00
2018-06-27T04:18:36.694Z,20.00
2018-06-27T04:19:08.424Z,20.00
2018-06-27T04:19:40.151Z,20.00
2018-06-27T04:20:11.877Z,20.00
2018-06-27T04:20:43.577Z,20.00
2018-06-27T04:21:15.295Z,20.00
2018-06-27T04:21:47.014Z,19.90
2018-06-27T04:22:18.785Z,20.00
2018-06-27T04:22:50.500Z,19.90
2018-06-27T04:23:22.242Z,19.90
2018-06-27T04:23:53.977Z,19.90
2018-06-27T04:24:25.774Z,19.90
2018-06-27T04:24:57.474Z,19.90
2018-06-27T04:25:29.198Z,19.90
2018-06-27T04:26:00.922Z,19.90
2018-06-27T04:26:32.681Z,19.90
2018-06-27T04:27:04.374Z,19.90
2018-06-27T04:27:36.110Z,19.90
2018-06-27T04:28:07.848Z,19.90
2018-06-27T04:28:39.581Z,19.90
2018-06-27T04:29:11.303Z,20.00
2018-06-27T04:29:43.029Z,19.90
2018-06-27T04:30:14.744Z,20.00
2018-06-27T04:30:46.493Z,20.00
2018-06-27T04:31:18.301Z,19.90
2018-06-27T04:31:50.002Z,19.90
2018-06-27T04:32:21.755Z,20.00
2018-06-27T04:32:53.490Z,19.90
2018-06-27T04:33:25.236Z,19.90
2018-06-27T04:33:56.979Z,19.90
2018-06-27T04:34:28.702Z,19.90
2018-06-27T04:35:00.413Z,19.90
2018-06-27T04:35:32.121Z,20.00
2018-06-27T04:36:03.933Z,19.90
2018-06-27T04:36:35.583Z,20.00
2018-06-27T04:37:07.326Z,20.00
2018-06-27T04:37:39.105Z,20.00
2018-06-27T04:38:10.795Z,20.00
2018-06-27T04:38:42.532Z,20.00
2018-06-27T04:39:14.243Z,20.00
2018-06-27T04:39:45.957Z,20.00
2018-06-27T04:40:17.666Z,19.90
2018-06-27T04:40:49.397Z,20.00
2018-06-27T04:41:21.114Z,20.00
2018-06-27T04:41:52.836Z,20.00
2018-06-27T04:42:24.623Z,20.00
2018-06-27T04:42:56.350Z,20.00
2018-06-27T04:43:28.065Z,20.00
2018-06-27T04:43:59.828Z,20.00
2018-06-27T04:44:31.535Z,20.00
2018-06-27T04:45:03.278Z,20.00
2018-06-27T04:45:34.982Z,20.00
2018-06-27T04:46:06.691Z,20.00
2018-06-27T04:46:38.417Z,20.00
2018-06-27T04:47:10.137Z,20.00
2018-06-27T04:47:41.864Z,20.00
2018-06-27T04:48:13.585Z,20.00
2018-06-27T04:48:45.320Z,19.90
2018-06-27T04:49:17.029Z,19.90
2018-06-27T04:49:48.741Z,19.90
2018-06-27T04:50:20.462Z,19.90
2018-06-27T04:50:52.234Z,19.90
2018-06-27T04:51:23.926Z,19.90
2018-06-27T04:51:55.671Z,19.90
2018-06-27T04:52:27.441Z,19.80
2018-06-27T04:52:59.180Z,19.90
2018-06-27T04:53:30.909Z,19.80
2018-06-27T04:54:02.636Z,19.90
2018-06-27T04:54:34.344Z,19.80
2018-06-27T04:55:06.096Z,19.90
2018-06-27T04:55:37.844Z,19.80
2018-06-27T04:56:09.561Z,19.90
2018-06-27T04:56:41.293Z,19.90
2018-06-27T04:57:13.045Z,19.90
2018-06-27T04:57:44.823Z,19.90
2018-06-27T04:58:16.539Z,19.90
2018-06-27T04:58:48.249Z,19.90
2018-06-27T04:59:19.994Z,19.90
2018-06-27T04:59:51.713Z,19.90
2018-06-27T05:00:23.470Z,19.90
2018-06-27T05:00:55.337Z,19.90
2018-06-27T05:01:27.636Z,19.90
2018-06-27T05:01:59.354Z,19.90
2018-06-27T05:02:31.067Z,19.90
2018-06-27T05:03:02.794Z,19.90
2018-06-27T05:03:34.525Z,19.90
2018-06-27T05:04:06.229Z,19.90
2018-06-27T05:04:37.954Z,19.90
2018-06-27T05:05:09.714Z,19.90
2018-06-27T05:05:41.434Z,19.90
2018-06-27T05:06:13.140Z,19.90
2018-06-27T05:06:44.871Z,19.90
2018-06-27T05:07:16.594Z,19.90
2018-06-27T05:07:48.332Z,19.90
2018-06-27T05:08:20.038Z,19.90
2018-06-27T05:08:51.762Z,19.90
2018-06-27T05:09:23.503Z,19.90
2018-06-27T05:09:55.213Z,19.90
2018-06-27T05:10:26.945Z,19.90
2018-06-27T05:10:58.661Z,19.90
2018-06-27T05:11:30.435Z,19.90
2018-06-27T05:12:02.091Z,19.90
2018-06-27T05:12:33.805Z,19.90
2018-06-27T05:13:05.554Z,19.90
2018-06-27T05:13:37.284Z,19.90
2018-06-27T05:14:08.987Z,19.90
2018-06-27T05:14:40.706Z,19.90
2018-06-27T05:15:12.429Z,20.00
2018-06-27T05:15:44.154Z,19.90
2018-06-27T05:16:15.855Z,19.90
2018-06-27T05:16:47.588Z,19.90
2018-06-27T05:17:19.320Z,20.00
2018-06-27T05:17:51.181Z,20.00
2018-06-27T05:18:22.914Z,20.00
2018-06-27T05:18:54.623Z,20.00
2018-06-27T05:19:26.341Z,20.00
2018-06-27T05:19:58.094Z,20.00
2018-06-27T05:20:29.798Z,20.00
2018-06-27T05:21:01.538Z,20.00
2018-06-27T05:21:33.262Z,19.90
2018-06-27T05:22:04.987Z,19.90
2018-06-27T05:22:36.998Z,19.90
2018-06-27T05:23:08.711Z,20.00
2018-06-27T05:23:40.487Z,20.00
2018-06-27T05:24:12.204Z,20.00
2018-06-27T05:24:44.020Z,20.00
2018-06-27T05:25:15.824Z,20.00
2018-06-27T05:25:47.586Z,20.00
2018-06-27T05:26:19.306Z,20.00
2018-06-27T05:26:51.029Z,19.90
2018-06-27T05:27:22.763Z,19.90
2018-06-27T05:27:54.484Z,20.00
2018-06-27T05:28:26.232Z,20.00
2018-06-27T05:28:58.005Z,20.00
2018-06-27T05:29:29.711Z,20.00
2018-06-27T05:30:01.477Z,19.90
2018-06-27T05:30:33.191Z,19.90
2018-06-27T05:31:04.919Z,19.90
2018-06-27T05:31:36.630Z,19.90
2018-06-27T05:32:08.346Z,20.00
2018-06-27T05:32:40.122Z,19.90
2018-06-27T05:33:11.867Z,20.00
2018-06-27T05:33:43.575Z,20.00
2018-06-27T05:34:15.348Z,19.90
2018-06-27T05:34:47.099Z,20.00
2018-06-27T05:35:18.850Z,20.00
2018-06-27T05:35:50.584Z,20.00
2018-06-27T05:36:22.333Z,20.00
2018-06-27T05:36:54.028Z,20.00
2018-06-27T05:37:25.745Z,20.00
2018-06-27T05:37:57.476Z,20.00
2018-06-27T05:38:29.200Z,20.00
2018-06-27T05:39:00.928Z,20.00
2018-06-27T05:39:32.684Z,20.00
2018-06-27T05:40:04.428Z,20.00
2018-06-27T05:40:36.179Z,20.00
2018-06-27T05:41:07.937Z,20.00
2018-06-27T05:41:39.636Z,20.00
2018-06-27T05:42:11.429Z,20.00
2018-06-27T05:42:43.150Z,20.00
2018-06-27T05:43:14.861Z,20.00
2018-06-27T05:43:46.662Z,20.00
2018-06-27T05:44:18.444Z,20.10
2018-06-27T05:44:50.133Z,20.00
2018-06-27T05:45:21.844Z,20.00
2018-06-27T05:45:53.574Z,20.00
2018-06-27T05:46:25.303Z,20.00
2018-06-27T05:46:57.002Z,20.00
2018-06-27T05:47:28.753Z,20.00
2018-06-27T05:48:00.461Z,20.00
2018-06-27T05:48:32.192Z,20.00
2018-06-27T05:49:03.959Z,20.10
2018-06-27T05:49:35.670Z,20.10
2018-06-27T05:50:07.379Z,20.10
2018-06-27T05:50:39.119Z,20.10
2018-06-27T05:51:10.861Z,20.00
2018-06-27T05:51:42.799Z,20.10
2018-06-27T05:52:14.518Z,20.00
2018-06-27T05:52:46.294Z,20.00
2018-06-27T05:53:18.032Z,20.00
2018-06-27T05:53:49.743Z,20.00
2018-06-27T05:54:21.451Z,20.00
2018-06-27T05:54:53.179Z,20.00
2018-06-27T05:55:24.892Z,20.00
2018-06-27T05:55:56.621Z,20.00
2018-06-27T05:56:28.333Z,20.00
2018-06-27T05:57:00.050Z,20.00
2018-06-27T05:57:31.775Z,20.00
2018-06-27T05:58:03.502Z,20.00
2018-06-27T05:58:35.278Z,20.00
2018-06-27T05:59:06.920Z,20.00
2018-06-27T05:59:38.634Z,19.90
2018-06-27T06:00:10.384Z,19.90
2018-06-27T06:00:42.098Z,19.90
2018-06-27T06:01:13.824Z,19.90
2018-06-27T06:01:45.545Z,19.90
2018-06-27T06:02:17.264Z,19.90
2018-06-27T06:02:48.971Z,19.90
2018-06-27T06:03:20.689Z,19.90
2018-06-27T06:03:52.400Z,19.90
2018-06-27T06:04:24.194Z,20.00
2018-06-27T06:04:55.880Z,20.00
2018-06-27T06:05:27.668Z,20.00
2018-06-27T06:05:59.383Z,20.00
2018-06-27T06:06:31.106Z,20.00
2018-06-27T06:07:02.814Z,20.00
2018-06-27T06:07:34.548Z,20.00
2018-06-27T06:08:06.266Z,20.00
2018-06-27T06:08:37.989Z,20.00
2018-06-27T06:09:09.729Z,20.00
2018-06-27T06:09:41.440Z,20.10
2018-06-27T06:10:13.165Z,20.10
2018-06-27T06:10:44.878Z,20.00
2018-06-27T06:11:16.686Z,20.10
2018-06-27T06:11:48.629Z,20.10
2018-06-27T06:12:20.312Z,20.10
2018-06-27T06:12:52.045Z,20.10
2018-06-27T06:13:23.748Z,20.10
2018-06-27T06:13:55.476Z,20.10
2018-06-27T06:14:27.186Z,20.00
2018-06-27T06:14:58.938Z,20.10
2018-06-27T06:15:30.638Z,20.00
2018-06-27T06:16:02.377Z,20.10
2018-06-27T06:16:34.090Z,20.10
2018-06-27T06:17:05.813Z,20.10
2018-06-27T06:17:37.522Z,20.10
2018-06-27T06:18:09.238Z,20.10
2018-06-27T06:18:40.983Z,20.10
2018-06-27T06:19:12.702Z,20.10
2018-06-27T06:19:44.405Z,20.10
2018-06-27T06:20:16.179Z,20.10
2018-06-27T06:20:47.894Z,20.10
2018-06-27T06:21:19.607Z,20.10
2018-06-27T06:21:51.317Z,20.10
2018-06-27T06:22:23.078Z,20.10
2018-06-27T06:22:54.787Z,20.10
2018-06-27T06:23:26.505Z,20.10
2018-06-27T06:23:58.245Z,20.10
2018-06-27T06:24:30.055Z,20.10
2018-06-27T06:25:01.786Z,20.00
2018-06-27T06:25:33.535Z,20.00
2018-06-27T06:26:05.254Z,20.00
2018-06-27T06:26:36.968Z,20.00
2018-06-27T06:27:08.693Z,20.00
2018-06-27T06:27:40.416Z,19.90
2018-06-27T06:28:12.118Z,19.90
2018-06-27T06:28:43.874Z,19.90
2018-06-27T06:29:15.598Z,19.90
2018-06-27T06:29:47.304Z,19.90
2018-06-27T06:30:19.013Z,19.90
2018-06-27T06:30:50.936Z,19.90
2018-06-27T06:31:22.657Z,19.90
2018-06-27T06:31:54.385Z,19.90
2018-06-27T06:32:26.126Z,19.90
2018-06-27T06:32:57.837Z,19.90
2018-06-27T06:33:29.546Z,19.90
2018-06-27T06:34:01.263Z,19.90
2018-06-27T06:34:32.979Z,20.00
2018-06-27T06:35:04.703Z,20.00
2018-06-27T06:35:36.446Z,20.00
2018-06-27T06:36:08.142Z,20.10
2018-06-27T06:36:39.854Z,20.10
2018-06-27T06:37:11.563Z,20.10
2018-06-27T06:37:43.284Z,20.10
2018-06-27T06:38:14.984Z,20.10
2018-06-27T06:38:46.729Z,20.10
2018-06-27T06:39:18.461Z,20.10
2018-06-27T06:39:50.158Z,20.10
2018-06-27T06:40:21.879Z,20.20
2018-06-27T06:40:53.591Z,20.20
2018-06-27T06:41:25.581Z,20.30
2018-06-27T06:41:57.287Z,20.30
2018-06-27T06:42:29.022Z,20.30
2018-06-27T06:43:00.871Z,20.30
2018-06-27T06:43:32.550Z,20.30
2018-06-27T06:44:04.270Z,20.20
2018-06-27T06:44:36.020Z,20.20
2018-06-27T06:45:07.744Z,20.20
2018-06-27T06:45:39.453Z,20.20
2018-06-27T06:46:11.260Z,20.20
2018-06-27T06:46:42.990Z,20.20
2018-06-27T06:47:14.725Z,20.20
2018-06-27T06:47:46.500Z,20.10
2018-06-27T06:48:18.171Z,20.10
2018-06-27T06:48:49.884Z,20.20
2018-06-27T06:49:21.598Z,20.20